createdAt,value
2019-06-08T00:01:57.061Z,101064.64
2019-06-08T00:04:29.532Z,101070.24
2019-06-08T00:07:02.014Z,101073.34
2019-06-08T00:09:34.478Z,101071.81
2019-06-08T00:12:06.957Z,101066.02
2019-06-08T00:14:39.536Z,101073.73
2019-06-08T00:17:27.384Z,101071.99
2019-06-08T00:19:46.119Z,101073.15
2019-06-08T00:22:19.772Z,101070.25
2019-06-08T00:24:52.193Z,101075.07
2019-06-08T00:27:24.652Z,101074.63
2019-06-08T00:29:56.834Z,101073.38
2019-06-08T00:32:29.104Z,101078.27
2019-06-08T00:35:01.382Z,101083.08
2019-06-08T00:37:33.648Z,101066.77
2019-06-08T00:40:09.495Z,101069.45
2019-06-08T00:42:41.524Z,101065.48
2019-06-08T00:45:15.279Z,101063.36
2019-06-08T00:47:48.370Z,101065.69
2019-06-08T00:50:21.074Z,101061.05
2019-06-08T00:52:53.509Z,101055.39
2019-06-08T00:55:26.134Z,101060.94
2019-06-08T00:57:58.253Z,101046.14
2019-06-08T01:00:30.800Z,101057.10
2019-06-08T01:03:03.505Z,101035.38
2019-06-08T01:05:35.777Z,101043.84
2019-06-08T01:08:08.471Z,101046.17
2019-06-08T01:10:40.932Z,101053.75
2019-06-08T01:13:13.317Z,101052.23
2019-06-08T01:15:45.573Z,101057.13
2019-06-08T01:18:20.692Z,101048.77
2019-06-08T01:20:51.955Z,101055.78
2019-06-08T01:23:24.128Z,101061.16
2019-06-08T01:25:56.285Z,101070.47
2019-06-08T01:28:28.575Z,101068.64
2019-06-08T01:31:00.828Z,101077.48
2019-06-08T01:33:33.202Z,101078.05
2019-06-08T01:36:06.899Z,101079.97
2019-06-08T01:38:39.270Z,101088.00
2019-06-08T01:41:11.651Z,101090.81
2019-06-08T01:43:44.118Z,101089.63
2019-06-08T01:46:16.599Z,101086.02
2019-06-08T01:48:48.763Z,101092.32
2019-06-08T01:51:22.443Z,101095.54
2019-06-08T01:53:55.124Z,101090.05
2019-06-08T01:56:27.409Z,101088.49
2019-06-08T01:58:59.808Z,101087.27
2019-06-08T02:01:32.156Z,101087.97
2019-06-08T02:04:05.122Z,101084.91
2019-06-08T02:06:37.355Z,101084.70
2019-06-08T02:09:10.813Z,101083.77
2019-06-08T02:11:42.974Z,101086.49
2019-06-08T02:14:15.453Z,101088.00
2019-06-08T02:16:47.731Z,101089.75
2019-06-08T02:19:20.090Z,101100.14
2019-06-08T02:21:52.871Z,101099.69
2019-06-08T02:24:25.145Z,101096.55
2019-06-08T02:26:57.313Z,101094.80
2019-06-08T02:29:29.891Z,101099.03
2019-06-08T02:32:02.483Z,101103.30
2019-06-08T02:34:36.081Z,101112.70
2019-06-08T02:37:12.134Z,101104.81
2019-06-08T02:39:44.594Z,101108.08
2019-06-08T02:42:17.071Z,101104.98
2019-06-08T02:44:49.349Z,101107.50
2019-06-08T02:47:21.713Z,101111.34
2019-06-08T02:49:54.190Z,101106.04
2019-06-08T02:52:26.763Z,101100.59
2019-06-08T02:55:00.149Z,101092.18
2019-06-08T02:57:35.582Z,101097.30
2019-06-08T03:00:10.383Z,101104.89
2019-06-08T03:02:44.999Z,101101.22
2019-06-08T03:05:17.738Z,101098.34
2019-06-08T03:07:51.950Z,101108.30
2019-06-08T03:10:24.119Z,101104.96
2019-06-08T03:12:56.999Z,101100.22
2019-06-08T03:15:33.894Z,101098.06
2019-06-08T03:18:06.078Z,101104.56
2019-06-08T03:20:40.001Z,101097.23
2019-06-08T03:23:12.238Z,101097.66
2019-06-08T03:25:52.592Z,101091.16
2019-06-08T03:28:18.811Z,101097.30
2019-06-08T03:30:54.205Z,101086.48
2019-06-08T03:33:25.499Z,101084.68
2019-06-08T03:35:58.728Z,101092.70
2019-06-08T03:38:31.163Z,101093.36
2019-06-08T03:41:03.639Z,101096.45
2019-06-08T03:43:37.606Z,101095.56
2019-06-08T03:46:10.020Z,101098.13
2019-06-08T03:48:44.490Z,101103.28
2019-06-08T03:51:16.712Z,101107.56
2019-06-08T03:53:49.722Z,101112.69
2019-06-08T03:56:22.144Z,101115.02
2019-06-08T03:58:54.543Z,101113.44
2019-06-08T04:01:27.891Z,101111.09
2019-06-08T04:04:00.780Z,101110.66
2019-06-08T04:06:33.094Z,101107.34
2019-06-08T04:09:07.456Z,101115.00
2019-06-08T04:11:42.449Z,101117.14
2019-06-08T04:14:15.005Z,101127.08
2019-06-08T04:16:47.510Z,101122.73
2019-06-08T04:19:20.180Z,101124.25
2019-06-08T04:21:52.658Z,101124.50
2019-06-08T04:24:25.024Z,101126.95
2019-06-08T04:26:57.082Z,101121.63
2019-06-08T04:29:29.854Z,101129.97
2019-06-08T04:32:02.307Z,101124.38
2019-06-08T04:34:34.833Z,101134.12
2019-06-08T04:37:07.396Z,101134.86
2019-06-08T04:39:40.233Z,101133.74
2019-06-08T04:42:12.854Z,101130.16
2019-06-08T04:44:46.998Z,101130.59
2019-06-08T04:47:19.234Z,101139.06
2019-06-08T04:49:51.618Z,101134.48
2019-06-08T04:52:23.990Z,101133.81
2019-06-08T04:54:56.563Z,101126.42
2019-06-08T04:57:28.841Z,101128.69
2019-06-08T05:00:11.179Z,101138.12
2019-06-08T05:02:41.531Z,101139.34
2019-06-08T05:05:14.346Z,101135.12
2019-06-08T05:07:48.530Z,101130.66
2019-06-08T05:10:20.414Z,101130.65
2019-06-08T05:12:52.987Z,101142.55
2019-06-08T05:15:25.470Z,101143.02
2019-06-08T05:17:58.038Z,101139.88
2019-06-08T05:20:38.868Z,101143.09
2019-06-08T05:23:05.446Z,101138.91
2019-06-08T05:25:38.995Z,101141.11
2019-06-08T05:28:11.421Z,101141.58
2019-06-08T05:30:43.789Z,101145.20
2019-06-08T05:33:16.163Z,101146.80
2019-06-08T05:35:49.809Z,101151.38
2019-06-08T05:38:22.034Z,101148.48
2019-06-08T05:40:54.503Z,101151.38
2019-06-08T05:43:27.199Z,101160.08
2019-06-08T05:45:59.458Z,101154.27
2019-06-08T05:48:32.034Z,101158.03
2019-06-08T05:51:04.832Z,101154.47
2019-06-08T05:53:37.416Z,101157.70
2019-06-08T05:56:09.763Z,101161.37
2019-06-08T05:58:42.031Z,101152.27
2019-06-08T06:01:16.349Z,101160.31
2019-06-08T06:03:48.848Z,101156.63
2019-06-08T06:06:21.201Z,101163.61
2019-06-08T06:08:53.374Z,101158.09
2019-06-08T06:11:25.733Z,101151.01
2019-06-08T06:13:58.212Z,101152.20
2019-06-08T06:16:30.685Z,101150.66
2019-06-08T06:19:03.206Z,101161.23
2019-06-08T06:21:37.071Z,101153.03
2019-06-08T06:24:09.545Z,101145.70
2019-06-08T06:26:43.237Z,101147.56
2019-06-08T06:29:15.365Z,101149.68
2019-06-08T06:31:47.887Z,101151.44
2019-06-08T06:34:20.258Z,101149.90
2019-06-08T06:36:52.630Z,101148.86
2019-06-08T06:39:25.921Z,101138.09
2019-06-08T06:41:59.931Z,101144.08
2019-06-08T06:44:35.279Z,101139.58
2019-06-08T06:47:07.750Z,101140.22
2019-06-08T06:49:40.120Z,101145.94
2019-06-08T06:52:12.386Z,101149.39
2019-06-08T06:54:44.947Z,101147.95
2019-06-08T06:57:17.233Z,101143.62
2019-06-08T06:59:49.602Z,101145.28
2019-06-08T07:02:22.786Z,101140.42
2019-06-08T07:04:55.070Z,101140.94
2019-06-08T07:07:27.344Z,101139.70
2019-06-08T07:09:59.711Z,101136.18
2019-06-08T07:12:31.874Z,101135.08
2019-06-08T07:15:05.373Z,101129.77
2019-06-08T07:17:37.643Z,101128.73
2019-06-08T07:20:10.323Z,101130.89
2019-06-08T07:22:42.494Z,101128.68
2019-06-08T07:25:14.653Z,101129.43
2019-06-08T07:27:48.376Z,101121.95
2019-06-08T07:30:20.949Z,101124.59
2019-06-08T07:32:53.207Z,101130.20
2019-06-08T07:35:25.675Z,101123.66
2019-06-08T07:37:58.047Z,101124.53
2019-06-08T07:40:30.631Z,101117.60
2019-06-08T07:43:03.004Z,101129.22
2019-06-08T07:45:35.778Z,101121.59
2019-06-08T07:48:07.946Z,101119.55
2019-06-08T07:50:40.630Z,101121.77
2019-06-08T07:53:13.231Z,101115.06
2019-06-08T07:55:45.658Z,101111.18
2019-06-08T07:58:18.064Z,101121.36
2019-06-08T08:00:52.545Z,101109.11
2019-06-08T08:03:26.069Z,101114.31
2019-06-08T08:05:58.638Z,101106.06
2019-06-08T08:08:31.015Z,101114.74
2019-06-08T08:11:03.491Z,101109.28
2019-06-08T08:13:35.978Z,101110.28
2019-06-08T08:16:08.134Z,101118.05
2019-06-08T08:18:40.504Z,101113.48
2019-06-08T08:21:22.344Z,101118.75
2019-06-08T08:23:47.886Z,101106.89
2019-06-08T08:26:20.692Z,101105.38
2019-06-08T08:28:54.726Z,101116.94
2019-06-08T08:31:27.839Z,101101.46
2019-06-08T08:34:05.779Z,101096.73
2019-06-08T08:36:34.279Z,101098.05
2019-06-08T08:39:08.717Z,101101.09
2019-06-08T08:41:40.859Z,101094.59
2019-06-08T08:44:13.134Z,101093.51
2019-06-08T08:46:45.506Z,101097.70
2019-06-08T08:49:18.357Z,101092.14
2019-06-08T08:51:52.144Z,101094.77
2019-06-08T08:54:24.889Z,101094.52
2019-06-08T08:57:01.652Z,101084.47
2019-06-08T08:59:31.052Z,101088.70
2019-06-08T09:02:04.277Z,101072.74
2019-06-08T09:04:38.092Z,101079.28
2019-06-08T09:07:13.091Z,101080.28
2019-06-08T09:09:48.058Z,101081.80
2019-06-08T09:12:19.875Z,101081.95
2019-06-08T09:14:54.239Z,101081.10
2019-06-08T09:17:27.994Z,101075.79
2019-06-08T09:20:03.307Z,101079.37
2019-06-08T09:22:47.141Z,101076.88
2019-06-08T09:25:08.870Z,101077.49
2019-06-08T09:27:41.074Z,101071.05
2019-06-08T09:30:13.850Z,101069.47
2019-06-08T09:32:47.832Z,101060.58
2019-06-08T09:35:21.260Z,101051.09
2019-06-08T09:37:54.812Z,101050.91
2019-06-08T09:40:31.939Z,101045.34
2019-06-08T09:43:06.102Z,101054.97
2019-06-08T09:45:38.116Z,101048.64
2019-06-08T09:48:10.398Z,101041.55
2019-06-08T09:50:42.962Z,101034.42
2019-06-08T09:53:26.875Z,101033.13
2019-06-08T09:55:49.962Z,101040.00
2019-06-08T09:58:22.434Z,101037.97
2019-06-08T10:00:56.185Z,101041.95
2019-06-08T10:03:30.813Z,101023.17
2019-06-08T10:06:08.320Z,101026.52
2019-06-08T10:08:38.755Z,101017.37
2019-06-08T10:11:11.265Z,101029.63
2019-06-08T10:13:43.964Z,101027.20
2019-06-08T10:16:18.537Z,101036.19
2019-06-08T10:18:51.494Z,101035.25
2019-06-08T10:21:23.814Z,101037.37
2019-06-08T10:23:59.487Z,101043.28
2019-06-08T10:26:29.997Z,101043.64
2019-06-08T10:29:04.965Z,101045.02
2019-06-08T10:31:42.068Z,101044.20
2019-06-08T10:34:11.562Z,101039.55
2019-06-08T10:36:44.089Z,101038.77
2019-06-08T10:39:16.359Z,101029.94
2019-06-08T10:41:51.473Z,101039.89
2019-06-08T10:44:22.638Z,101040.98
2019-06-08T10:46:54.804Z,101044.89
2019-06-08T10:49:28.692Z,101040.83
2019-06-08T10:52:03.498Z,101040.32
2019-06-08T10:54:37.685Z,101046.92
2019-06-08T10:57:09.947Z,101050.02
2019-06-08T10:59:42.122Z,101046.70
2019-06-08T11:02:14.912Z,101055.13
2019-06-08T11:04:48.409Z,101048.91
2019-06-08T11:07:20.769Z,101050.53
2019-06-08T11:09:53.015Z,101050.70
2019-06-08T11:12:28.153Z,101056.12
2019-06-08T11:15:01.610Z,101056.84
2019-06-08T11:17:34.642Z,101047.72
2019-06-08T11:20:11.805Z,101043.90
2019-06-08T11:22:42.447Z,101054.16
2019-06-08T11:25:16.646Z,101054.89
2019-06-08T11:27:48.730Z,101048.36
2019-06-08T11:30:26.814Z,101043.52
2019-06-08T11:32:57.671Z,101034.83
2019-06-08T11:35:30.245Z,101026.08
2019-06-08T11:38:03.861Z,101029.16
2019-06-08T11:40:37.900Z,101014.39
2019-06-08T11:43:11.580Z,101011.26
2019-06-08T11:45:43.938Z,101008.78
2019-06-08T11:48:18.310Z,101019.26
2019-06-08T11:50:50.730Z,101013.63
2019-06-08T11:53:23.712Z,101010.20
2019-06-08T11:55:58.546Z,101007.17
2019-06-08T11:58:33.995Z,101002.69
2019-06-08T12:01:11.612Z,101001.97
2019-06-08T12:03:42.457Z,101009.85
2019-06-08T12:06:14.796Z,101006.80
2019-06-08T12:08:47.352Z,101001.02
2019-06-08T12:11:23.006Z,101003.17
2019-06-08T12:13:53.852Z,100999.30
2019-06-08T12:16:28.093Z,101003.81
2019-06-08T12:18:59.824Z,100994.36
2019-06-08T12:21:32.089Z,100988.25
2019-06-08T12:24:05.998Z,100989.89
2019-06-08T12:26:38.472Z,100980.41
2019-06-08T12:29:13.473Z,100974.88
2019-06-08T12:31:45.980Z,100974.28
2019-06-08T12:34:18.594Z,100967.53
2019-06-08T12:36:51.040Z,100967.89
2019-06-08T12:39:23.403Z,100967.02
2019-06-08T12:41:58.205Z,100962.61
2019-06-08T12:44:29.686Z,100958.61
2019-06-08T12:47:01.958Z,100952.28
2019-06-08T12:49:34.537Z,100955.42
2019-06-08T12:52:08.650Z,100951.39
2019-06-08T12:54:56.200Z,100944.97
2019-06-08T12:57:17.572Z,100942.93
2019-06-08T12:59:50.063Z,100946.97
2019-06-08T13:02:24.358Z,100937.86
2019-06-08T13:04:57.563Z,100935.61
2019-06-08T13:07:29.986Z,100933.30
2019-06-08T13:10:02.517Z,100932.77
2019-06-08T13:12:34.988Z,100934.42
2019-06-08T13:15:10.053Z,100932.36
2019-06-08T13:17:43.116Z,100936.10
2019-06-08T13:20:21.956Z,100934.88
2019-06-08T13:22:52.875Z,100934.75
2019-06-08T13:25:37.465Z,100932.47
2019-06-08T13:27:59.602Z,100924.87
2019-06-08T13:30:32.487Z,100931.39
2019-06-08T13:33:04.819Z,100928.44
2019-06-08T13:35:39.469Z,100922.99
2019-06-08T13:38:12.629Z,100920.45
2019-06-08T13:40:45.012Z,100914.45
2019-06-08T13:43:19.807Z,100917.52
2019-06-08T13:45:51.779Z,100919.09
2019-06-08T13:48:24.476Z,100918.84
2019-06-08T13:50:59.040Z,100924.19
2019-06-08T13:53:31.950Z,100913.28
2019-06-08T13:56:04.461Z,100908.98
2019-06-08T13:58:38.209Z,100921.56
2019-06-08T14:01:11.053Z,100919.48
2019-06-08T14:03:44.959Z,100914.32
2019-06-08T14:06:19.055Z,100914.68
2019-06-08T14:08:51.135Z,100915.30
2019-06-08T14:11:25.048Z,100914.70
2019-06-08T14:14:00.829Z,100916.41
2019-06-08T14:16:31.592Z,100917.80
2019-06-08T14:19:04.406Z,100916.45
2019-06-08T14:21:41.108Z,100913.86
2019-06-08T14:24:11.611Z,100912.94
2019-06-08T14:26:44.902Z,100917.30
2019-06-08T14:29:19.662Z,100925.67
2019-06-08T14:31:51.590Z,100915.33
2019-06-08T14:34:24.836Z,100932.47
2019-06-08T14:36:59.408Z,100931.81
2019-06-08T14:39:31.990Z,100930.47
2019-06-08T14:42:04.772Z,100933.16
2019-06-08T14:44:38.039Z,100937.09
2019-06-08T14:47:13.889Z,100940.78
2019-06-08T14:49:48.675Z,100942.94
2019-06-08T14:52:22.234Z,100939.89
2019-06-08T14:54:54.922Z,100946.02
2019-06-08T14:57:28.233Z,100940.86
2019-06-08T15:00:08.331Z,100943.29
2019-06-08T15:02:37.936Z,100946.13
2019-06-08T15:05:10.249Z,100956.16
2019-06-08T15:07:42.721Z,100959.37
2019-06-08T15:10:18.045Z,100961.36
2019-06-08T15:12:49.510Z,100963.35
2019-06-08T15:15:21.884Z,100973.49
2019-06-08T15:17:55.177Z,100974.34
2019-06-08T15:20:28.589Z,100984.19
2019-06-08T15:23:00.840Z,100974.25
2019-06-08T15:25:33.216Z,100964.27
2019-06-08T15:28:08.042Z,100969.02
2019-06-08T15:30:39.902Z,100966.52
2019-06-08T15:33:12.276Z,100966.73
2019-06-08T15:35:44.546Z,100968.66
2019-06-08T15:38:17.547Z,100967.25
2019-06-08T15:40:51.135Z,100975.52
2019-06-08T15:43:23.887Z,100975.18
2019-06-08T15:45:58.936Z,100977.58
2019-06-08T15:48:31.985Z,100974.88
2019-06-08T15:51:03.588Z,100980.64
2019-06-08T15:53:37.862Z,100979.67
2019-06-08T15:56:10.385Z,100981.70
2019-06-08T15:58:42.855Z,100982.23
2019-06-08T16:01:15.225Z,100984.96
2019-06-08T16:03:47.904Z,100988.31
2019-06-08T16:06:20.286Z,100993.37
2019-06-08T16:08:52.853Z,100984.11
2019-06-08T16:11:26.070Z,100985.33
2019-06-08T16:13:58.314Z,100987.02
2019-06-08T16:16:31.132Z,100983.78
2019-06-08T16:19:03.573Z,100992.29
2019-06-08T16:21:36.132Z,100989.00
2019-06-08T16:24:08.420Z,100988.19
2019-06-08T16:26:52.739Z,100996.22
2019-06-08T16:29:14.696Z,100999.77
2019-06-08T16:31:47.069Z,101003.67
2019-06-08T16:34:19.339Z,101001.97
2019-06-08T16:36:52.090Z,101004.08
2019-06-08T16:39:24.693Z,101005.33
2019-06-08T16:41:57.172Z,101008.08
2019-06-08T16:44:30.010Z,101010.53
2019-06-08T16:47:02.629Z,101007.97
2019-06-08T16:49:35.418Z,101005.80
2019-06-08T16:52:08.709Z,100996.52
2019-06-08T16:54:41.284Z,101001.19
2019-06-08T16:57:13.657Z,100996.02
2019-06-08T16:59:45.824Z,100999.11
2019-06-08T17:02:18.518Z,100995.74
2019-06-08T17:04:50.811Z,100992.64
2019-06-08T17:07:23.040Z,100992.95
2019-06-08T17:09:55.246Z,100992.58
2019-06-08T17:12:27.537Z,100995.23
2019-06-08T17:14:59.744Z,100990.50
2019-06-08T17:17:32.144Z,100998.53
2019-06-08T17:20:05.825Z,101002.33
2019-06-08T17:22:39.111Z,100999.49
2019-06-08T17:25:12.112Z,100997.47
2019-06-08T17:27:44.372Z,100996.94
2019-06-08T17:30:16.857Z,100996.95
2019-06-08T17:32:49.014Z,100994.55
2019-06-08T17:35:21.279Z,101003.17
2019-06-08T17:37:53.450Z,101002.94
2019-06-08T17:40:25.923Z,100998.69
2019-06-08T17:43:01.575Z,101001.78
2019-06-08T17:45:34.243Z,101009.58
2019-06-08T17:48:06.723Z,101002.58
2019-06-08T17:50:39.199Z,101005.58
2019-06-08T17:53:12.188Z,101004.38
2019-06-08T17:55:44.563Z,101003.66
2019-06-08T17:58:20.941Z,101013.06
2019-06-08T18:00:50.736Z,101018.61
2019-06-08T18:03:23.361Z,101025.06
2019-06-08T18:05:57.721Z,101028.47
2019-06-08T18:08:30.105Z,101027.98
2019-06-08T18:11:02.679Z,101030.50
2019-06-08T18:13:36.877Z,101031.41
2019-06-08T18:16:08.967Z,101031.31
2019-06-08T18:18:42.471Z,101033.66
2019-06-08T18:21:17.695Z,101029.33
2019-06-08T18:23:49.558Z,101033.94
2019-06-08T18:26:21.787Z,101035.03
2019-06-08T18:28:55.110Z,101044.89
2019-06-08T18:31:27.729Z,101051.67
2019-06-08T18:34:02.079Z,101040.59
2019-06-08T18:36:35.064Z,101047.13
2019-06-08T18:39:08.703Z,101050.45
2019-06-08T18:41:42.607Z,101051.17
2019-06-08T18:44:17.396Z,101059.44
2019-06-08T18:46:50.425Z,101069.23
2019-06-08T18:49:25.689Z,101079.82
2019-06-08T18:51:58.220Z,101068.12
2019-06-08T18:54:32.154Z,101074.88
2019-06-08T18:57:06.127Z,101073.31
2019-06-08T18:59:43.145Z,101074.75
2019-06-08T19:02:12.949Z,101081.66
2019-06-08T19:04:47.730Z,101077.44
2019-06-08T19:07:19.650Z,101075.34
2019-06-08T19:09:51.920Z,101086.52
2019-06-08T19:12:24.287Z,101081.19
2019-06-08T19:14:58.598Z,101083.61
2019-06-08T19:17:30.869Z,101089.16
2019-06-08T19:20:04.166Z,101097.13
2019-06-08T19:22:40.949Z,101098.23
2019-06-08T19:25:12.104Z,101095.94
2019-06-08T19:27:47.514Z,101098.86
2019-06-08T19:30:20.342Z,101101.16
2019-06-08T19:32:52.632Z,101100.66
2019-06-08T19:35:27.215Z,101110.00
2019-06-08T19:37:59.062Z,101103.47
2019-06-08T19:40:31.433Z,101102.17
2019-06-08T19:43:03.707Z,101105.13
2019-06-08T19:45:38.642Z,101102.67
2019-06-08T19:48:10.185Z,101097.03
2019-06-08T19:50:42.867Z,101113.27
2019-06-08T19:53:18.156Z,101115.87
2019-06-08T19:55:53.937Z,101109.18
2019-06-08T19:58:24.078Z,101104.31
2019-06-08T20:00:58.816Z,101099.02
2019-06-08T20:03:31.686Z,101106.58
2019-06-08T20:06:04.175Z,101109.52
2019-06-08T20:08:37.476Z,101106.84
2019-06-08T20:11:10.036Z,101110.63
2019-06-08T20:13:43.295Z,101113.45
2019-06-08T20:16:17.418Z,101118.13
2019-06-08T20:18:51.691Z,101114.80
2019-06-08T20:21:24.544Z,101124.09
2019-06-08T20:23:58.526Z,101123.28
2019-06-08T20:26:30.718Z,101125.45
2019-06-08T20:29:13.678Z,101125.72
2019-06-08T20:31:38.987Z,101127.28
2019-06-08T20:34:11.322Z,101128.16
2019-06-08T20:36:44.805Z,101122.98
2019-06-08T20:39:18.071Z,101120.16
2019-06-08T20:41:51.894Z,101121.47
2019-06-08T20:44:24.284Z,101111.27
2019-06-08T20:46:57.718Z,101107.75
2019-06-08T20:49:30.051Z,101098.95
2019-06-08T20:52:02.216Z,101102.23
2019-06-08T20:54:36.834Z,101098.97
2019-06-08T20:57:08.810Z,101093.77
2019-06-08T20:59:40.951Z,101091.64
2019-06-08T21:02:13.857Z,101086.64
2019-06-08T21:04:49.134Z,101082.98
2019-06-08T21:07:19.826Z,101091.66
2019-06-08T21:09:53.707Z,101093.89
2019-06-08T21:12:28.329Z,101088.18
2019-06-08T21:15:00.630Z,101089.70
2019-06-08T21:17:32.902Z,101091.81
2019-06-08T21:20:08.455Z,101093.14
2019-06-08T21:22:41.024Z,101092.38
2019-06-08T21:25:13.594Z,101092.21
2019-06-08T21:27:48.100Z,101096.70
2019-06-08T21:30:24.305Z,101097.55
2019-06-08T21:32:55.869Z,101117.77
2019-06-08T21:35:27.492Z,101117.34
2019-06-08T21:38:01.293Z,101114.39
2019-06-08T21:40:33.675Z,101128.67
2019-06-08T21:43:08.135Z,101122.52
2019-06-08T21:45:40.665Z,101117.10
2019-06-08T21:48:13.145Z,101115.36
2019-06-08T21:50:47.647Z,101103.63
2019-06-08T21:53:19.975Z,101104.22
2019-06-08T21:55:52.202Z,101109.79
2019-06-08T21:58:24.673Z,101104.89
2019-06-08T22:00:59.167Z,101102.78
2019-06-08T22:03:32.206Z,101102.69
2019-06-08T22:06:04.553Z,101107.98
2019-06-08T22:08:37.540Z,101117.12
2019-06-08T22:11:09.917Z,101114.57
2019-06-08T22:13:42.190Z,101120.41
2019-06-08T22:16:14.841Z,101114.59
2019-06-08T22:18:47.593Z,101113.57
2019-06-08T22:21:19.909Z,101108.17
2019-06-08T22:23:53.318Z,101113.13
2019-06-08T22:26:28.051Z,101118.05
2019-06-08T22:29:01.187Z,101130.34
2019-06-08T22:31:34.517Z,101138.06
2019-06-08T22:34:06.893Z,101137.67
2019-06-08T22:36:38.955Z,101136.73
2019-06-08T22:39:11.429Z,101138.70
2019-06-08T22:41:44.113Z,101143.03
2019-06-08T22:44:17.690Z,101147.41
2019-06-08T22:46:49.982Z,101147.97
2019-06-08T22:49:22.245Z,101157.34
2019-06-08T22:51:55.714Z,101161.26
2019-06-08T22:54:29.143Z,101165.66
2019-06-08T22:57:03.159Z,101148.75
2019-06-08T22:59:37.222Z,101160.17
2019-06-08T23:02:09.743Z,101153.38
2019-06-08T23:04:42.323Z,101146.95
2019-06-08T23:07:26.656Z,101126.98
2019-06-08T23:09:48.491Z,101123.38
2019-06-08T23:12:20.969Z,101129.41
2019-06-08T23:14:54.293Z,101147.62
2019-06-08T23:17:28.057Z,101131.05
2019-06-08T23:20:01.620Z,101134.19
2019-06-08T23:22:34.448Z,101138.49
2019-06-08T23:25:09.332Z,101140.98
2019-06-08T23:27:40.834Z,101137.60
2019-06-08T23:30:13.508Z,101151.60
2019-06-08T23:32:47.946Z,101162.05
2019-06-08T23:35:19.995Z,101173.95
2019-06-08T23:37:53.194Z,101171.69
2019-06-08T23:40:27.253Z,101161.56
2019-06-08T23:43:01.256Z,101162.39
2019-06-08T23:45:33.575Z,101157.91
2019-06-08T23:48:06.691Z,101149.02
2019-06-08T23:50:39.042Z,101152.27
2019-06-08T23:53:11.725Z,101161.48
2019-06-08T23:55:44.188Z,101154.66
2019-06-08T23:58:17.546Z,101155.20
